Terminal Aerodrome Forecast
Issued by NWS

Home | Current Version | Previous Version | Text Only | Print | Product List | Glossary On
Versions: 1 2 3 4 5 6 7 8 9 10 11 12 13 14 15 16 17 18 19 20 21
000
FTUS41 KCAR 201709 AAD
TAFPQI
TAF AMD
KPQI 201709Z 2017/2112 02004KT 2SM -SN BR OVC015
     FM202000 05002KT P6SM -SHSN OVC009
      AMD LTD TO CLD VIS AND WIND=

USA.gov is the U.S. government's official web portal to all federal, state and local government web resources and services.